Time;durP1;ratioP1;P1;durP2;ratioP2;P2;SDS_P1;SDS_P2;PMS_P1;PMS_P2;Temp;Humidity;BMP_temperature;BMP_pressure;BME280_temperature;BME280_humidity;BME280_pressure;Samples;Min_cycle;Max_cycle;Signal;HPM_P1;HPM_P2
2022/08/10 00:01:30;;;;;;;1.20;0.90;;;;;;;19.12;74.79;102519.84;6223361;28;20501;-76
2022/08/10 00:04:31;;;;;;;0.82;0.70;;;;;;;19.06;74.92;102523.75;6223291;28;20490;-77
2022/08/10 00:07:34;;;;;;;1.45;1.08;;;;;;;19.04;75.40;102523.00;6223180;28;20045;-76
2022/08/10 00:10:36;;;;;;;0.95;0.85;;;;;;;18.99;75.01;102527.75;6223195;28;20057;-77
2022/08/10 00:13:37;;;;;;;3.63;0.60;;;;;;;18.90;76.27;102523.84;6223217;28;20050;-77
2022/08/10 00:16:38;;;;;;;3.05;0.82;;;;;;;18.83;76.77;102524.28;6223066;28;20054;-77
2022/08/10 00:19:40;;;;;;;2.47;0.90;;;;;;;18.78;76.96;102524.56;6222901;28;20057;-77
2022/08/10 00:22:43;;;;;;;0.93;0.85;;;;;;;18.72;78.24;102531.13;6222828;28;20077;-77
2022/08/10 00:25:44;;;;;;;1.33;0.70;;;;;;;18.73;77.88;102527.50;6222505;28;20409;-77
2022/08/10 00:28:45;;;;;;;1.45;1.00;;;;;;;18.68;78.12;102528.69;6222820;28;20061;-77
2022/08/10 00:31:47;;;;;;;1.10;0.90;;;;;;;18.69;78.01;102522.44;6222764;28;20549;-76
2022/08/10 00:34:48;;;;;;;4.78;0.82;;;;;;;18.66;78.44;102519.94;6222677;28;20050;-77
2022/08/10 00:37:51;;;;;;;1.05;0.90;;;;;;;18.57;78.71;102516.00;6222758;28;20046;-77
2022/08/10 00:40:52;;;;;;;2.35;1.02;;;;;;;18.49;78.68;102515.63;6222556;28;20403;-77
2022/08/10 00:43:54;;;;;;;1.35;0.98;;;;;;;18.43;79.67;102510.63;6222107;28;20061;-76
2022/08/10 00:46:55;;;;;;;2.88;1.25;;;;;;;18.36;80.31;102510.16;6222540;28;20399;-77
2022/08/10 00:49:57;;;;;;;2.08;1.13;;;;;;;18.33;80.92;102514.78;6222663;28;20046;-77
2022/08/10 00:52:59;;;;;;;1.20;1.10;;;;;;;18.29;81.00;102508.78;6222467;28;20046;-76
2022/08/10 00:56:01;;;;;;;1.48;0.90;;;;;;;18.25;81.61;102513.41;6222366;28;20482;-77
2022/08/10 00:59:03;;;;;;;1.10;0.95;;;;;;;18.29;81.04;102510.56;6222355;28;20417;-77
2022/08/10 01:02:05;;;;;;;1.00;0.90;;;;;;;18.29;81.48;102516.75;6222113;28;20410;-77
2022/08/10 01:05:09;;;;;;;2.22;1.25;;;;;;;18.28;81.28;102519.50;6222220;28;20057;-76
2022/08/10 01:08:18;;;;;;;4.93;1.00;;;;;;;18.24;81.62;102514.34;6222316;28;20057;-76
2022/08/10 01:11:31;;;;;;;1.40;1.02;;;;;;;18.22;81.72;102512.75;6222274;28;20054;-76
2022/08/10 01:14:37;;;;;;;1.35;1.05;;;;;;;18.19;82.12;102515.56;6222138;28;20544;-76
2022/08/10 01:17:48;;;;;;;1.80;1.08;;;;;;;18.16;82.60;102516.59;6222186;28;20490;-76
2022/08/10 01:21:18;;;;;;;2.22;1.02;;;;;;;18.16;82.70;102505.94;6222128;28;20054;-76
2022/08/10 01:24:39;;;;;;;2.50;1.13;;;;;;;18.11;82.91;102509.81;6221887;28;20060;-76
2022/08/10 01:27:51;;;;;;;1.55;1.05;;;;;;;18.09;83.05;102498.44;6222148;28;20046;-76
2022/08/10 01:30:58;;;;;;;2.70;1.15;;;;;;;18.04;83.00;102503.16;6222004;28;20046;-76
2022/08/10 01:34:04;;;;;;;6.47;1.02;;;;;;;18.00;83.48;102503.31;6221916;28;20050;-76
2022/08/10 01:37:11;;;;;;;1.40;0.90;;;;;;;17.95;83.80;102504.53;6222067;28;20050;-76
2022/08/10 01:40:17;;;;;;;2.20;1.10;;;;;;;17.84;84.21;102505.13;6221964;28;20054;-76
2022/08/10 01:43:20;;;;;;;1.15;0.90;;;;;;;17.83;84.32;102505.22;6222109;28;20046;-76
2022/08/10 01:46:25;;;;;;;1.63;1.05;;;;;;;17.77;85.40;102506.41;6221711;28;20046;-76
2022/08/10 01:49:27;;;;;;;2.10;1.27;;;;;;;17.73;85.23;102503.06;6221726;28;20498;-76
2022/08/10 01:52:30;;;;;;;2.42;1.17;;;;;;;17.66;85.85;102495.47;6221862;28;20050;-76
2022/08/10 01:55:32;;;;;;;3.08;1.23;;;;;;;17.67;86.32;102498.06;6226322;28;20057;-76
2022/08/10 01:58:35;;;;;;;1.77;1.25;;;;;;;17.61;86.94;102494.88;6226263;28;20532;-76
2022/08/10 02:01:42;;;;;;;1.63;1.13;;;;;;;17.58;87.02;102495.06;6226039;28;20057;-76
2022/08/10 02:04:47;;;;;;;1.45;1.00;;;;;;;17.49;87.45;102501.72;6226114;28;20053;-76
2022/08/10 02:07:49;;;;;;;4.80;1.15;;;;;;;17.42;87.96;102498.53;6225844;28;20053;-76
2022/08/10 02:10:53;;;;;;;2.28;1.50;;;;;;;17.38;88.66;102493.47;6226017;28;20049;-75
2022/08/10 02:13:57;;;;;;;3.30;1.70;;;;;;;17.35;88.19;102499.81;6225798;28;20054;-76
2022/08/10 02:17:01;;;;;;;2.38;1.20;;;;;;;17.30;88.18;102507.16;6225850;28;20042;-76
2022/08/10 02:20:07;;;;;;;2.70;1.40;;;;;;;17.29;88.97;102505.44;6225471;28;20064;-75
2022/08/10 02:23:14;;;;;;;1.65;1.20;;;;;;;17.20;89.96;102504.13;6225898;28;20061;-75
2022/08/10 02:26:15;;;;;;;2.70;1.25;;;;;;;17.19;89.51;102507.72;6225221;28;20048;-76
2022/08/10 02:29:18;;;;;;;0.93;0.90;;;;;;;17.14;89.61;102504.47;6225760;28;20664;-75
2022/08/10 02:32:24;;;;;;;4.47;1.13;;;;;;;17.04;89.94;102505.91;6225197;28;20050;-75
2022/08/10 02:35:27;;;;;;;2.10;1.27;;;;;;;17.01;90.71;102507.84;6225608;28;20057;-76
2022/08/10 02:38:32;;;;;;;1.58;0.85;;;;;;;16.93;91.44;102514.41;6225349;28;20050;-76
2022/08/10 02:41:41;;;;;;;2.35;1.77;;;;;;;16.93;91.83;102517.06;6223540;28;20508;-76
2022/08/10 02:44:49;;;;;;;2.50;1.52;;;;;;;16.90;92.19;102516.38;6225118;28;20057;-76
2022/08/10 02:47:57;;;;;;;4.10;1.50;;;;;;;16.86;92.42;102514.81;6224976;28;20050;-76
2022/08/10 02:51:01;;;;;;;1.90;1.20;;;;;;;16.84;92.68;102512.22;6231558;28;20293;-76
2022/08/10 02:54:07;;;;;;;4.30;1.30;;;;;;;16.85;92.71;102505.13;6240460;28;20041;-75
2022/08/10 02:57:13;;;;;;;0.90;0.90;;;;;;;16.82;93.20;102510.59;6236174;28;20045;-76
2022/08/10 03:00:15;;;;;;;1.35;1.10;;;;;;;16.79;92.67;102508.94;6234701;28;20068;-75
2022/08/10 03:03:23;;;;;;;2.55;1.45;;;;;;;16.75;92.95;102504.72;6227667;28;20045;-75
2022/08/10 03:06:30;;;;;;;2.05;1.30;;;;;;;16.71;92.79;102506.69;6226086;28;20390;-75
2022/08/10 03:09:34;;;;;;;1.30;1.10;;;;;;;16.65;93.56;102506.13;6236520;28;20049;-75
2022/08/10 03:12:38;;;;;;;3.30;1.35;;;;;;;16.63;93.54;102505.34;6235802;28;20057;-75
2022/08/10 03:15:40;;;;;;;1.33;1.17;;;;;;;16.61;93.44;102497.44;6233893;28;20038;-75
2022/08/10 03:18:45;;;;;;;1.95;1.05;;;;;;;16.60;93.70;102493.06;6236522;28;20046;-76
2022/08/10 03:21:48;;;;;;;1.80;1.20;;;;;;;16.54;94.38;102487.22;6233979;28;20505;-76
2022/08/10 03:24:51;;;;;;;1.48;1.38;;;;;;;16.48;94.64;102493.69;6226025;28;20042;-75
2022/08/10 03:27:54;;;;;;;1.50;1.25;;;;;;;16.42;95.22;102494.84;6224168;28;20051;-76
2022/08/10 03:30:57;;;;;;;2.05;1.10;;;;;;;16.35;95.33;102490.81;6223966;28;20049;-75
2022/08/10 03:34:01;;;;;;;4.40;1.42;;;;;;;16.32;95.57;102493.59;6224177;28;20497;-76
2022/08/10 03:37:02;;;;;;;3.10;1.50;;;;;;;16.32;96.52;102495.41;6224190;28;20052;-76
2022/08/10 03:40:06;;;;;;;2.55;1.45;;;;;;;16.29;97.04;102495.53;6223854;28;20444;-76
2022/08/10 03:43:10;;;;;;;3.50;1.50;;;;;;;16.21;97.56;102493.25;6226301;28;20051;-76
2022/08/10 03:46:13;;;;;;;1.92;1.45;;;;;;;16.18;97.88;102494.28;6236864;28;20057;-75
2022/08/10 03:49:18;;;;;;;3.63;1.30;;;;;;;16.12;98.10;102497.22;6234033;28;20045;-76
2022/08/10 03:52:21;;;;;;;1.85;1.30;;;;;;;16.15;98.62;102494.44;6233184;28;20057;-76
2022/08/10 03:55:22;;;;;;;3.03;1.40;;;;;;;16.16;99.08;102500.59;6235146;28;20407;-76
2022/08/10 03:58:24;;;;;;;2.25;1.30;;;;;;;16.17;98.78;102500.53;6248209;28;20052;-76
2022/08/10 04:01:26;;;;;;;2.42;1.70;;;;;;;16.15;98.66;102501.53;6247700;28;20056;-75
2022/08/10 04:04:29;;;;;;;1.88;1.40;;;;;;;16.18;99.48;102507.56;6247987;28;20535;-76
2022/08/10 04:07:31;;;;;;;3.58;1.70;;;;;;;16.20;99.62;102504.81;6247634;28;20485;-75
2022/08/10 04:10:33;;;;;;;3.35;1.50;;;;;;;16.22;99.68;102509.13;6247837;28;20056;-75
2022/08/10 04:13:34;;;;;;;2.20;1.30;;;;;;;16.24;99.56;102509.03;6247655;28;20056;-76
2022/08/10 04:16:36;;;;;;;3.30;1.38;;;;;;;16.24;100.00;102506.38;6247386;28;20405;-76
2022/08/10 04:19:42;;;;;;;2.22;1.70;;;;;;;16.23;100.00;102510.84;6247695;28;20045;-75
2022/08/10 04:22:47;;;;;;;1.85;1.35;;;;;;;16.23;100.00;102509.97;6247388;28;20053;-76
2022/08/10 04:25:50;;;;;;;1.42;1.30;;;;;;;16.26;100.00;102507.19;6247464;28;20050;-75
2022/08/10 04:28:52;;;;;;;3.45;1.40;;;;;;;16.29;100.00;102514.13;6247256;28;20053;-75
2022/08/10 04:31:53;;;;;;;2.47;1.75;;;;;;;16.31;100.00;102505.16;6247450;28;20049;-76
2022/08/10 04:34:58;;;;;;;4.57;2.00;;;;;;;16.29;100.00;102514.97;6247032;28;20060;-75
2022/08/10 04:38:01;;;;;;;2.67;1.30;;;;;;;16.33;100.00;102513.03;6247349;28;20490;-76
2022/08/10 04:41:03;;;;;;;2.78;1.55;;;;;;;16.35;100.00;102514.69;6246913;28;20057;-75
2022/08/10 04:44:05;;;;;;;3.35;1.70;;;;;;;16.35;100.00;102522.66;6247471;28;20053;-76
2022/08/10 04:47:06;;;;;;;2.95;1.60;;;;;;;16.38;100.00;102524.28;6246849;28;20056;-76
2022/08/10 04:50:09;;;;;;;3.38;1.83;;;;;;;16.38;100.00;102524.28;6247082;28;20058;-78
2022/08/10 04:53:11;;;;;;;2.17;1.60;;;;;;;16.40;100.00;102525.06;6247155;28;20056;-76
2022/08/10 04:56:12;;;;;;;3.17;1.65;;;;;;;16.34;100.00;102515.59;6246608;28;20049;-75
2022/08/10 04:59:13;;;;;;;3.33;1.90;;;;;;;16.37;100.00;102520.75;6247019;28;20692;-75
2022/08/10 05:02:15;;;;;;;2.35;1.63;;;;;;;16.38;100.00;102522.47;6246559;28;20053;-75
2022/08/10 05:05:18;;;;;;;2.92;1.60;;;;;;;16.39;100.00;102518.88;6246791;28;20052;-76
2022/08/10 05:08:19;;;;;;;2.78;1.75;;;;;;;16.35;100.00;102516.47;6246611;28;20049;-76
2022/08/10 05:11:20;;;;;;;2.08;1.75;;;;;;;16.39;100.00;102524.19;6247054;28;20492;-76
2022/08/10 05:14:22;;;;;;;1.45;1.35;;;;;;;16.44;100.00;102521.31;6247317;28;20428;-75
2022/08/10 05:17:23;;;;;;;1.85;1.60;;;;;;;16.48;100.00;102528.19;6246870;28;20042;-76
2022/08/10 05:20:26;;;;;;;4.82;1.50;;;;;;;16.43;100.00;102528.41;6246472;28;20046;-76
2022/08/10 05:23:27;;;;;;;1.83;1.60;;;;;;;16.46;99.80;102538.03;6251033;28;20049;-76
2022/08/10 05:26:29;;;;;;;2.65;1.67;;;;;;;16.48;99.87;102534.34;6248858;28;20046;-75
2022/08/10 05:29:30;;;;;;;3.63;1.65;;;;;;;16.51;99.21;102535.16;6249681;28;20413;-76
2022/08/10 05:32:32;;;;;;;2.20;1.60;;;;;;;16.47;99.29;102537.09;6251665;28;20103;-75
2022/08/10 05:35:37;;;;;;;3.47;1.70;;;;;;;16.51;99.40;102529.84;6251115;28;20049;-75
2022/08/10 05:38:39;;;;;;;2.03;1.55;;;;;;;16.49;99.09;102536.09;6251768;28;20413;-75
2022/08/10 05:41:41;;;;;;;2.08;1.52;;;;;;;16.49;98.53;102529.94;6250997;28;20053;-75
2022/08/10 05:44:42;;;;;;;1.65;1.55;;;;;;;16.51;100.00;102537.81;6251218;28;20056;-75
2022/08/10 05:47:44;;;;;;;3.83;2.15;;;;;;;16.51;99.68;102536.00;6251106;28;20421;-75
2022/08/10 05:50:46;;;;;;;2.08;1.52;;;;;;;16.55;99.52;102540.22;6250720;28;20050;-76
2022/08/10 05:53:49;;;;;;;4.13;1.42;;;;;;;16.59;99.61;102538.28;6252132;28;20064;-77
2022/08/10 05:56:51;;;;;;;2.17;1.70;;;;;;;16.63;99.25;102545.16;6251760;28;20052;-75
2022/08/10 05:59:59;;;;;;;2.80;1.63;;;;;;;16.68;99.18;102545.78;6250895;28;20053;-76
2022/08/10 06:03:07;;;;;;;2.75;1.80;;;;;;;16.70;99.17;102544.75;6251057;28;20045;-75
2022/08/10 06:06:12;;;;;;;4.28;1.73;;;;;;;16.74;99.01;102542.84;6250701;28;20054;-75
2022/08/10 06:09:15;;;;;;;2.38;1.65;;;;;;;16.81;99.12;102544.28;6250764;28;20516;-76
2022/08/10 06:12:19;;;;;;;4.40;1.77;;;;;;;16.86;98.52;102544.88;6245307;28;20049;-75
2022/08/10 06:15:19;;;;;;;2.72;1.75;;;;;;;16.93;98.66;102543.63;6236651;28;20049;-76
2022/08/10 06:18:20;;;;;;;3.30;1.60;;;;;;;16.98;98.95;102538.06;6237967;28;20045;-75
2022/08/10 06:21:23;;;;;;;4.35;1.60;;;;;;;17.03;98.74;102540.50;6235318;28;20501;-75
2022/08/10 06:24:27;;;;;;;1.58;1.48;;;;;;;17.10;97.97;102547.22;6237186;28;20508;-76
2022/08/10 06:27:29;;;;;;;2.17;1.35;;;;;;;17.17;97.93;102544.16;6234886;28;20068;-75
2022/08/10 06:30:31;;;;;;;1.65;1.25;;;;;;;17.24;97.41;102550.00;6236904;28;20045;-75
2022/08/10 06:33:35;;;;;;;4.68;2.42;;;;;;;17.31;96.21;102539.94;6237308;28;20401;-75
2022/08/10 06:36:41;;;;;;;2.25;1.70;;;;;;;17.38;96.32;102541.31;6235974;28;20053;-76
2022/08/10 06:39:43;;;;;;;1.98;1.23;;;;;;;17.44;95.88;102548.94;6233948;28;20269;-75
2022/08/10 06:42:47;;;;;;;1.88;1.60;;;;;;;17.47;95.76;102549.63;6237032;28;20092;-75
2022/08/10 06:45:53;;;;;;;1.55;1.25;;;;;;;17.52;95.15;102559.16;6231830;28;20528;-75
2022/08/10 06:48:59;;;;;;;1.60;1.35;;;;;;;17.58;95.44;102554.41;6243328;28;20045;-75
2022/08/10 06:52:02;;;;;;;2.63;1.40;;;;;;;17.62;95.09;102555.06;6249443;28;20050;-75
2022/08/10 06:55:08;;;;;;;3.85;1.02;;;;;;;17.67;94.78;102553.91;6249672;28;20489;-75
2022/08/10 06:58:11;;;;;;;1.88;1.38;;;;;;;17.72;95.10;102551.84;6241930;28;20042;-75
2022/08/10 07:01:15;;;;;;;1.38;1.20;;;;;;;17.76;95.02;102541.94;6236445;28;20048;-75
2022/08/10 07:04:23;;;;;;;2.53;1.42;;;;;;;17.83;94.57;102542.44;6226702;28;20056;-75
2022/08/10 07:07:29;;;;;;;2.13;1.10;;;;;;;17.92;93.79;102536.63;6224418;28;20050;-75
2022/08/10 07:10:32;;;;;;;1.98;1.15;;;;;;;17.97;93.65;102526.56;6223832;28;20541;-75
2022/08/10 07:13:36;;;;;;;1.60;1.05;;;;;;;18.06;92.23;102535.84;6223606;28;20058;-75
2022/08/10 07:16:41;;;;;;;1.95;1.15;;;;;;;18.11;92.05;102531.97;6236882;28;20052;-75
2022/08/10 07:19:45;;;;;;;2.80;1.35;;;;;;;18.16;90.68;102537.03;6224101;28;20046;-75
2022/08/10 07:22:50;;;;;;;2.35;1.30;;;;;;;18.22;90.04;102531.38;6223003;28;20513;-76
2022/08/10 07:25:53;;;;;;;4.53;1.20;;;;;;;18.28;89.90;102539.00;6231131;28;20053;-76
2022/08/10 07:28:55;;;;;;;2.65;1.10;;;;;;;18.30;89.30;102534.44;6231812;28;20053;-75
2022/08/10 07:31:59;;;;;;;1.95;1.25;;;;;;;18.37;87.84;102535.81;6231016;28;20064;-75
2022/08/10 07:35:02;;;;;;;2.63;1.50;;;;;;;18.47;86.04;102533.47;6228870;28;20049;-75
2022/08/10 07:38:09;;;;;;;4.47;1.13;;;;;;;18.55;84.84;102541.03;6223870;28;20057;-75
2022/08/10 07:41:11;;;;;;;3.08;0.98;;;;;;;18.60;84.89;102541.59;6223650;28;20056;-75
2022/08/10 07:44:14;;;;;;;1.63;1.50;;;;;;;18.64;85.31;102532.50;6223491;28;20058;-75
2022/08/10 07:47:20;;;;;;;5.28;1.40;;;;;;;18.67;84.93;102533.19;6223858;28;20048;-75
2022/08/10 07:50:23;;;;;;;1.63;1.27;;;;;;;18.77;84.26;102532.66;6223589;28;20038;-75
2022/08/10 07:53:29;;;;;;;3.35;1.65;;;;;;;18.83;83.54;102534.94;6223700;28;20604;-75
2022/08/10 07:56:33;;;;;;;2.33;1.63;;;;;;;18.87;82.91;102529.34;6223071;28;20399;-76
2022/08/10 07:59:37;;;;;;;2.67;1.35;;;;;;;18.92;82.75;102529.94;6223437;28;20054;-75
2022/08/10 08:02:44;;;;;;;1.83;1.00;;;;;;;18.99;81.77;102533.94;6226281;28;20045;-76
2022/08/10 08:05:46;;;;;;;1.20;0.88;;;;;;;19.09;80.66;102530.72;6227276;28;20046;-76
2022/08/10 08:08:50;;;;;;;1.27;1.13;;;;;;;19.18;80.13;102531.03;6230805;28;20552;-75
2022/08/10 08:11:54;;;;;;;1.35;0.90;;;;;;;19.25;79.06;102535.00;6223059;28;20060;-75
2022/08/10 08:14:58;;;;;;;2.55;1.38;;;;;;;19.31;78.87;102527.59;6223184;28;20068;-76
2022/08/10 08:18:04;;;;;;;1.38;1.23;;;;;;;19.43;76.82;102525.00;6223664;28;20057;-76
2022/08/10 08:21:06;;;;;;;1.67;1.10;;;;;;;19.50;77.24;102530.84;6223051;28;20046;-76
2022/08/10 08:24:10;;;;;;;1.90;1.05;;;;;;;19.59;76.48;102538.25;6224672;28;20053;-76
2022/08/10 08:27:15;;;;;;;1.75;1.00;;;;;;;19.69;75.18;102531.41;6222777;28;20061;-76
2022/08/10 08:30:16;;;;;;;2.97;1.52;;;;;;;19.85;73.55;102525.97;6222469;28;20062;-75
2022/08/10 08:33:18;;;;;;;6.25;1.30;;;;;;;19.93;72.77;102518.31;6223992;28;20053;-76
2022/08/10 08:36:21;;;;;;;2.42;1.30;;;;;;;20.00;72.33;102522.31;6222630;28;20050;-75
2022/08/10 08:39:24;;;;;;;2.50;1.38;;;;;;;20.08;71.40;102523.63;6222815;28;20731;-76
2022/08/10 08:42:38;;;;;;;1.40;1.00;;;;;;;20.09;71.48;102515.50;6222848;28;20050;-75
2022/08/10 08:45:52;;;;;;;3.13;1.50;;;;;;;20.13;71.43;102511.69;6224361;28;20494;-76
2022/08/10 08:49:11;;;;;;;1.73;1.02;;;;;;;20.21;70.86;102511.16;6222747;28;20060;-76
2022/08/10 08:52:26;;;;;;;1.30;1.20;;;;;;;20.31;69.49;102511.44;6222747;28;20052;-77
2022/08/10 08:55:47;;;;;;;2.72;1.20;;;;;;;20.39;68.84;102511.75;6222558;28;20045;-77
2022/08/10 08:59:04;;;;;;;2.88;1.60;;;;;;;20.48;69.40;102511.19;6222801;28;20042;-75
2022/08/10 09:02:27;;;;;;;1.77;1.35;;;;;;;20.58;68.84;102519.44;6222008;28;20429;-76
2022/08/10 09:05:37;;;;;;;3.35;1.30;;;;;;;20.67;67.63;102500.97;6222505;28;20402;-76
2022/08/10 09:09:00;;;;;;;1.67;1.42;;;;;;;20.69;67.63;102499.03;6223072;28;20050;-77
2022/08/10 09:12:19;;;;;;;3.75;1.80;;;;;;;20.77;66.51;102499.38;6222853;28;20486;-76
2022/08/10 09:15:32;;;;;;;1.30;1.20;;;;;;;20.92;64.56;102502.81;6222236;28;20512;-76
2022/08/10 09:18:41;;;;;;;1.52;1.20;;;;;;;21.01;64.42;102499.50;6222149;28;20249;-76
2022/08/10 09:21:45;;;;;;;;;;;;;;;21.06;63.20;102496.50;6223715;28;20042;-76
2022/08/10 09:24:56;;;;;;;2.25;1.20;;;;;;;21.12;62.94;102488.06;6222058;28;19927;-76
2022/08/10 09:28:04;;;;;;;4.30;1.40;;;;;;;21.25;61.82;102494.22;6222093;28;20061;-76
2022/08/10 09:31:09;;;;;;;2.92;1.60;;;;;;;21.33;62.26;102503.59;6224037;28;20046;-75
2022/08/10 09:34:17;;;;;;;4.20;2.08;;;;;;;21.42;61.20;102495.75;6246938;28;20528;-76
2022/08/10 09:37:31;;;;;;;2.40;1.13;;;;;;;21.45;60.65;102489.34;6246664;28;20489;-76
2022/08/10 09:40:44;;;;;;;2.35;1.40;;;;;;;21.52;60.85;102486.09;6246843;28;20049;-76
2022/08/10 09:43:56;;;;;;;1.42;1.13;;;;;;;21.65;59.06;102482.53;6235773;28;20049;-76
2022/08/10 09:47:13;;;;;;;1.63;1.13;;;;;;;21.72;59.44;102470.44;6232555;28;20498;-76
2022/08/10 09:50:22;;;;;;;2.38;1.10;;;;;;;21.88;57.30;102464.78;6237400;28;20448;-76
2022/08/10 09:53:38;;;;;;;2.30;1.20;;;;;;;21.93;57.55;102466.16;6230676;28;20045;-76
2022/08/10 09:56:49;;;;;;;1.27;1.02;;;;;;;22.32;52.06;102461.50;6235717;28;20046;-75
2022/08/10 09:59:57;;;;;;;2.38;1.38;;;;;;;22.23;51.10;102463.06;6234306;28;20049;-76
2022/08/10 10:03:10;;;;;;;1.60;1.10;;;;;;;22.24;54.27;102463.91;6232513;28;20423;-76
2022/08/10 10:06:18;;;;;;;3.50;1.00;;;;;;;22.35;53.89;102473.84;6246629;28;20050;-76
2022/08/10 10:09:25;;;;;;;1.17;1.00;;;;;;;22.38;52.19;102460.19;6247465;28;20050;-77
2022/08/10 10:12:42;;;;;;;1.00;0.95;;;;;;;22.38;51.61;102463.72;6247266;28;20162;-77
2022/08/10 10:15:52;;;;;;;1.20;0.70;;;;;;;22.47;49.73;102459.47;6251608;28;20501;-77
2022/08/10 10:19:01;;;;;;;3.05;0.70;;;;;;;22.54;49.42;102458.91;6252642;28;20626;-78
2022/08/10 10:22:20;;;;;;;1.90;0.88;;;;;;;22.66;48.89;102454.41;6252848;28;20056;-78
2022/08/10 10:25:28;;;;;;;1.75;0.82;;;;;;;22.71;49.58;102448.69;6253734;28;20081;-76
2022/08/10 10:28:40;;;;;;;1.27;0.80;;;;;;;22.75;50.79;102451.00;6252525;28;20132;-77
2022/08/10 10:31:49;;;;;;;1.10;0.98;;;;;;;23.02;50.22;102441.81;6245832;28;20140;-77
2022/08/10 10:34:59;;;;;;;0.70;0.70;;;;;;;23.29;49.91;102436.91;6227634;28;20417;-77
2022/08/10 10:38:02;;;;;;;1.88;1.40;;;;;;;23.32;48.74;102429.63;6228978;28;20050;-78
2022/08/10 10:41:13;;;;;;;1.52;1.25;;;;;;;23.16;49.06;102428.16;6227756;28;20489;-78
2022/08/10 10:44:32;;;;;;;4.65;1.52;;;;;;;23.25;49.03;102422.03;6228097;28;20053;-77
2022/08/10 10:47:52;;;;;;;1.40;1.10;;;;;;;23.35;49.34;102419.50;6227303;28;20058;-77
2022/08/10 10:51:00;;;;;;;1.42;0.88;;;;;;;23.47;47.98;102417.63;6226448;28;20046;-76
2022/08/10 10:54:09;;;;;;;1.73;1.20;;;;;;;23.54;48.66;102417.00;6226368;28;20053;-77
2022/08/10 10:57:17;;;;;;;0.70;0.70;;;;;;;23.58;47.54;102414.09;6227675;28;20064;-77
2022/08/10 11:00:24;;;;;;;1.70;1.20;;;;;;;23.72;48.22;102409.31;6230131;28;20046;-77
2022/08/10 11:03:45;;;;;;;2.90;0.98;;;;;;;23.98;47.78;102408.94;6234637;28;20347;-76
2022/08/10 11:06:56;;;;;;;1.10;0.68;;;;;;;24.09;45.76;102414.28;6232957;28;20049;-76
2022/08/10 11:10:02;;;;;;;4.20;0.93;;;;;;;24.31;45.76;102418.69;6242979;28;20142;-77
2022/08/10 11:13:23;;;;;;;2.05;0.82;;;;;;;24.51;44.90;102404.41;6235610;28;20120;-77
2022/08/10 11:16:35;;;;;;;2.42;0.80;;;;;;;24.67;44.22;102413.88;6227760;28;20056;-76
2022/08/10 11:19:52;;;;;;;1.17;0.90;;;;;;;24.76;43.73;102407.69;6226825;28;20053;-78
2022/08/10 11:23:02;;;;;;;0.80;0.80;;;;;;;24.97;43.46;102399.53;6225911;28;20053;-77
2022/08/10 11:26:10;;;;;;;0.90;0.75;;;;;;;25.11;42.31;102385.75;6227163;28;20132;-77
2022/08/10 11:29:17;;;;;;;1.75;1.15;;;;;;;25.04;42.69;102392.66;6226558;28;20046;-77
2022/08/10 11:32:25;;;;;;;1.13;0.90;;;;;;;25.19;44.57;102383.22;6226597;28;20046;-76
2022/08/10 11:35:38;;;;;;;1.25;1.00;;;;;;;25.41;42.15;102387.53;6226587;28;20057;-76
2022/08/10 11:38:54;;;;;;;2.03;0.70;;;;;;;25.82;38.88;102377.53;6227481;28;20061;-77
2022/08/10 11:42:02;;;;;;;1.42;0.70;;;;;;;26.07;39.56;102373.41;6227788;28;20414;-77
2022/08/10 11:45:10;;;;;;;1.42;0.73;;;;;;;26.31;38.33;102372.97;6227591;28;20532;-77
2022/08/10 11:48:16;;;;;;;0.65;0.65;;;;;;;26.53;37.84;102372.66;6227121;28;20061;-77
2022/08/10 11:51:22;;;;;;;0.70;0.70;;;;;;;26.72;37.25;102371.72;6231389;28;20042;-78
2022/08/10 11:54:29;;;;;;;8.40;0.80;;;;;;;26.81;38.46;102370.84;6227846;28;20490;-78
2022/08/10 11:57:31;;;;;;;1.35;0.85;;;;;;;27.01;37.51;102366.19;6250968;28;20056;-77
2022/08/10 12:00:37;;;;;;;1.13;1.02;;;;;;;27.26;36.35;102361.97;6242002;28;20045;-77
2022/08/10 12:03:42;;;;;;;1.45;0.85;;;;;;;27.43;35.99;102354.84;6230464;28;20068;-77
2022/08/10 12:06:49;;;;;;;1.63;0.85;;;;;;;27.62;35.85;102353.03;6226353;28;20050;-78
2022/08/10 12:09:53;;;;;;;0.73;0.70;;;;;;;27.92;35.88;102355.34;6226441;28;20046;-77
2022/08/10 12:13:02;;;;;;;0.88;0.70;;;;;;;28.34;35.88;102351.91;6226070;28;20054;-77
2022/08/10 12:16:09;;;;;;;0.63;0.63;;;;;;;28.59;34.89;102355.66;6226782;28;20049;-78
2022/08/10 12:19:15;;;;;;;0.82;0.65;;;;;;;28.69;34.72;102350.13;6226928;28;20137;-77
2022/08/10 12:22:22;;;;;;;0.77;0.60;;;;;;;28.86;34.71;102349.19;6227962;28;20152;-77
2022/08/10 12:25:30;;;;;;;1.13;0.90;;;;;;;28.92;33.93;102353.09;6229202;28;20049;-78
2022/08/10 12:28:39;;;;;;;1.17;0.80;;;;;;;29.14;33.93;102333.56;6228369;28;20060;-77
2022/08/10 12:31:46;;;;;;;0.82;0.80;;;;;;;29.21;33.47;102331.91;6227685;28;20050;-77
2022/08/10 12:34:50;;;;;;;1.40;0.95;;;;;;;29.38;32.81;102326.50;6227753;28;20424;-77
2022/08/10 12:38:04;;;;;;;0.80;0.80;;;;;;;29.39;33.95;102325.50;6227777;28;20131;-78
2022/08/10 12:41:10;;;;;;;1.23;0.70;;;;;;;29.64;32.48;102320.97;6229663;28;20053;-77
2022/08/10 12:44:15;;;;;;;1.52;1.00;;;;;;;29.79;32.26;102319.28;6228577;28;20076;-78
2022/08/10 12:47:28;;;;;;;0.50;0.50;;;;;;;30.04;31.89;102317.41;6229556;28;20049;-78
2022/08/10 12:50:36;;;;;;;1.35;0.80;;;;;;;30.10;30.60;102305.00;6230471;28;20065;-77
2022/08/10 12:53:46;;;;;;;;;;;;;;;30.21;31.42;102299.28;6230277;28;20142;-77
2022/08/10 12:56:51;;;;;;;2.92;1.10;;;;;;;30.17;31.10;102298.78;6230280;28;19956;-78
2022/08/10 12:59:57;;;;;;;0.70;0.70;;;;;;;30.27;31.20;102299.41;6229045;28;20049;-77
2022/08/10 13:03:00;;;;;;;1.27;0.93;;;;;;;30.27;29.70;102291.28;6228537;28;20489;-78
2022/08/10 13:06:04;;;;;;;1.27;1.17;;;;;;;30.10;30.47;102277.91;6230030;28;20053;-77
2022/08/10 13:09:11;;;;;;;1.13;0.80;;;;;;;30.12;31.52;102268.59;6228771;28;20440;-77
2022/08/10 13:12:15;;;;;;;3.90;0.70;;;;;;;30.28;31.20;102270.41;6228497;28;20052;-78
2022/08/10 13:15:21;;;;;;;2.80;0.75;;;;;;;30.47;30.15;102264.56;6228282;28;20465;-78
2022/08/10 13:18:28;;;;;;;0.60;0.60;;;;;;;30.29;30.47;102264.81;6227212;28;20049;-77
2022/08/10 13:21:36;;;;;;;2.15;0.70;;;;;;;30.28;30.50;102260.41;6227138;28;20468;-77
2022/08/10 13:24:43;;;;;;;0.88;0.60;;;;;;;30.65;30.40;102267.03;6226619;28;20046;-77
2022/08/10 13:27:45;;;;;;;0.70;0.70;;;;;;;30.92;30.16;102262.16;6237894;28;20057;-77
2022/08/10 13:30:48;;;;;;;0.90;0.70;;;;;;;31.05;29.07;102257.84;6250091;28;20050;-76
2022/08/10 13:33:53;;;;;;;1.35;0.70;;;;;;;31.28;29.52;102249.72;6243633;28;20068;-77
2022/08/10 13:36:57;;;;;;;0.55;0.50;;;;;;;31.37;29.02;102252.38;6239218;28;20057;-76
2022/08/10 13:40:02;;;;;;;1.23;0.70;;;;;;;31.40;28.75;102257.47;6234728;28;20046;-76
2022/08/10 13:43:06;;;;;;;1.13;0.77;;;;;;;31.36;28.93;102251.53;6248339;28;20050;-77
2022/08/10 13:46:15;;;;;;;1.13;0.57;;;;;;;31.40;28.33;102249.31;6235579;28;20049;-77
2022/08/10 13:49:18;;;;;;;0.85;0.73;;;;;;;31.40;29.10;102252.03;6228849;28;20428;-76
2022/08/10 13:52:23;;;;;;;0.93;0.73;;;;;;;31.69;28.05;102248.53;6239021;28;20050;-76
2022/08/10 13:55:28;;;;;;;2.53;0.80;;;;;;;31.76;28.61;102247.59;6235844;28;20050;-76
2022/08/10 13:58:31;;;;;;;1.02;0.73;;;;;;;31.85;27.56;102242.13;6227487;28;20509;-77
2022/08/10 14:01:35;;;;;;;0.73;0.70;;;;;;;31.81;27.80;102228.84;6230556;28;20486;-77
2022/08/10 14:04:44;;;;;;;1.15;0.70;;;;;;;31.82;28.87;102230.56;6237355;28;20053;-76
2022/08/10 14:07:46;;;;;;;0.60;0.60;;;;;;;32.02;28.47;102233.59;6227705;28;20490;-76
2022/08/10 14:10:51;;;;;;;1.08;0.60;;;;;;;32.13;27.10;102231.44;6227829;28;20052;-77
2022/08/10 14:13:56;;;;;;;0.60;0.60;;;;;;;32.11;26.64;102223.44;6238630;28;20555;-76
2022/08/10 14:16:58;;;;;;;1.33;0.50;;;;;;;32.07;27.68;102222.16;6244334;28;20041;-77
2022/08/10 14:20:01;;;;;;;0.50;0.50;;;;;;;32.18;26.68;102218.94;6251731;28;20050;-76
2022/08/10 14:23:06;;;;;;;1.15;0.80;;;;;;;32.20;26.57;102205.16;6251651;28;20049;-77